createdAt,value
2022-09-03T08:41:55.011Z,26.8
2022-09-03T08:47:13.779Z,26.8
2022-09-03T08:52:32.640Z,26.8
2022-09-03T08:57:51.441Z,26.8
2022-09-03T09:03:09.639Z,26.8
2022-09-03T09:08:28.396Z,26.7
2022-09-03T09:13:46.865Z,26.8
2022-09-03T09:19:05.078Z,26.7
2022-09-03T09:24:23.556Z,26.7
2022-09-03T09:29:42.307Z,26.7
2022-09-03T09:35:00.786Z,26.8
2022-09-03T09:40:19.271Z,26.8
2022-09-03T09:45:37.476Z,26.8
2022-09-03T09:50:55.955Z,26.8
2022-09-03T09:56:14.454Z,26.8
2022-09-03T10:01:32.993Z,26.8
2022-09-03T10:06:51.378Z,26.8
2022-09-03T10:12:10.145Z,26.8
2022-09-03T10:17:37.946Z,26.8
2022-09-03T10:22:57.766Z,26.8
2022-09-03T10:28:16.252Z,26.8
2022-09-03T10:33:34.457Z,26.8
2022-09-03T10:38:52.658Z,26.8
2022-09-03T10:44:11.132Z,26.8
2022-09-03T10:49:29.343Z,26.9
2022-09-03T10:54:48.110Z,26.8
2022-09-03T11:00:06.301Z,26.9
2022-09-03T11:05:25.058Z,26.9
2022-09-03T11:10:43.556Z,26.8
2022-09-03T11:16:02.049Z,26.8
2022-09-03T11:21:20.371Z,26.8
2022-09-03T11:26:38.868Z,26.9
2022-09-03T11:31:57.343Z,26.9
2022-09-03T11:37:15.836Z,26.8
2022-09-03T11:42:34.322Z,26.8
2022-09-03T11:47:52.824Z,26.9
2022-09-03T11:53:11.023Z,26.9
2022-09-03T11:58:29.785Z,26.9
2022-09-03T12:03:47.993Z,27
2022-09-03T12:09:06.482Z,27
2022-09-03T12:14:24.960Z,27
2022-09-03T12:19:43.734Z,27
2022-09-03T12:25:02.209Z,27
2022-09-03T12:30:21.058Z,27
2022-09-03T12:36:09.682Z,27
2022-09-03T12:41:28.617Z,27.1
2022-09-03T12:46:47.541Z,27.1
2022-09-03T12:52:07.024Z,27
2022-09-03T12:57:25.526Z,27.1
2022-09-03T13:02:43.716Z,27.1
2022-09-03T13:08:02.483Z,27.1
2022-09-03T13:13:20.953Z,27
2022-09-03T13:18:39.425Z,27.1
2022-09-03T13:23:57.919Z,27.1
2022-09-03T13:29:16.398Z,27.1
2022-09-03T13:34:35.146Z,27.1
2022-09-03T13:39:53.454Z,27.1
2022-09-03T13:45:12.103Z,27.1
2022-09-03T13:50:30.310Z,27.1
2022-09-03T13:55:48.791Z,27.2
2022-09-03T14:01:07.069Z,27.2
2022-09-03T14:06:25.572Z,27.2
2022-09-03T14:11:44.043Z,27.2
2022-09-03T14:17:02.530Z,27.2
2022-09-03T14:22:21.284Z,27.2
2022-09-03T14:27:40.039Z,27.2
2022-09-03T14:32:58.633Z,27.2
2022-09-03T14:38:16.844Z,27.2
2022-09-03T14:43:35.324Z,27.2
2022-09-03T14:48:53.813Z,27.2
2022-09-03T14:54:12.591Z,27.3
2022-09-03T14:59:31.346Z,27.3
2022-09-03T15:04:49.542Z,27.3
2022-09-03T15:10:07.752Z,27.3
2022-09-03T15:15:26.237Z,27.3
2022-09-03T15:20:44.942Z,27.4
2022-09-03T15:26:03.377Z,27.4
2022-09-03T15:31:22.234Z,27.4
2022-09-03T15:36:40.405Z,27.4
2022-09-03T15:41:58.872Z,27.4
2022-09-03T15:47:23.095Z,27.4
2022-09-03T15:52:45.181Z,27.4
2022-09-03T15:58:03.661Z,27.4
2022-09-03T16:03:24.586Z,27.4
2022-09-03T16:08:43.915Z,27.4
2022-09-03T16:14:02.106Z,27.4
2022-09-03T16:19:20.044Z,27.4
2022-09-03T16:24:38.519Z,27.4
2022-09-03T16:29:57.279Z,27.4
2022-09-03T16:35:16.041Z,27.3
2022-09-03T16:40:34.805Z,27.3
2022-09-03T16:45:53.868Z,27.3
2022-09-03T16:51:05.326Z,27.3
2022-09-03T16:56:25.127Z,27.3
2022-09-03T17:01:44.788Z,27.3
2022-09-03T17:07:03.120Z,27.2
2022-09-03T17:12:21.458Z,27.2
2022-09-03T17:17:39.622Z,27.2
2022-09-03T17:22:58.383Z,27.2
2022-09-03T17:28:24.749Z,27.2
2022-09-03T17:33:43.553Z,27.2
2022-09-03T17:39:02.004Z,27.2
2022-09-03T17:44:20.475Z,27.2
2022-09-03T17:49:38.952Z,27.1
2022-09-03T17:54:57.712Z,27.1
2022-09-03T18:00:17.882Z,27.1
2022-09-03T18:05:36.080Z,27.1
2022-09-03T18:10:54.559Z,27.1
2022-09-03T18:16:13.390Z,27.1
2022-09-03T18:21:32.752Z,27.1
2022-09-03T18:26:50.945Z,27.1
2022-09-03T18:32:09.439Z,27.1
2022-09-03T18:37:27.640Z,27.1
2022-09-03T18:42:45.832Z,27.1
2022-09-03T18:48:16.626Z,27
2022-09-03T18:53:39.248Z,27.1
2022-09-03T18:58:57.453Z,27
2022-09-03T19:04:15.373Z,27
2022-09-03T19:09:33.572Z,27
2022-09-03T19:14:52.190Z,27
2022-09-03T19:20:10.953Z,27
2022-09-03T19:25:29.150Z,27
2022-09-03T19:30:51.101Z,27
2022-09-03T19:36:09.547Z,27
2022-09-03T19:41:28.309Z,27
2022-09-03T19:46:46.874Z,27
2022-09-03T19:52:06.395Z,27
2022-09-03T19:57:25.146Z,27
2022-09-03T20:02:44.045Z,27
2022-09-03T20:08:02.876Z,27
2022-09-03T20:13:21.600Z,27
2022-09-03T20:18:39.794Z,27
2022-09-03T20:23:58.261Z,27
2022-09-03T20:29:16.977Z,27
2022-09-03T20:34:35.732Z,27
2022-09-03T20:39:54.638Z,27
2022-09-03T20:45:12.923Z,27
2022-09-03T20:50:31.123Z,27
2022-09-03T20:55:49.602Z,27
2022-09-03T21:01:08.182Z,27
2022-09-03T21:06:26.889Z,27
2022-09-03T21:11:45.652Z,27
2022-09-03T21:17:04.144Z,27
2022-09-03T21:22:22.896Z,27
2022-09-03T21:27:41.393Z,27
2022-09-03T21:33:00.157Z,27
2022-09-03T21:38:18.144Z,27
2022-09-03T21:43:36.620Z,27
2022-09-03T21:48:55.387Z,27
2022-09-03T21:54:14.336Z,27
2022-09-03T21:59:32.490Z,27
2022-09-03T22:04:51.216Z,26.9
2022-09-03T22:10:09.400Z,26.9
2022-09-03T22:15:27.901Z,26.9
2022-09-03T22:20:46.395Z,26.9
2022-09-03T22:26:05.148Z,26.9
2022-09-03T22:31:23.927Z,26.9
2022-09-03T22:36:42.143Z,26.9
2022-09-03T22:42:00.335Z,26.9
2022-09-03T22:47:25.734Z,26.9
2022-09-03T22:52:44.218Z,26.9
2022-09-03T22:58:02.419Z,26.9
2022-09-03T23:03:21.118Z,26.9
2022-09-03T23:08:39.581Z,26.9
2022-09-03T23:13:58.071Z,26.9
2022-09-03T23:24:37.813Z,26.9
2022-09-03T23:29:56.020Z,26.9
2022-09-03T23:35:14.804Z,26.9
2022-09-03T23:40:32.994Z,26.9
2022-09-03T23:45:51.600Z,26.9
2022-09-03T23:51:09.917Z,26.9
2022-09-03T23:56:28.417Z,26.8
